createdAt,value
2022-12-05T00:01:39.217Z,5.72
2022-12-05T00:04:11.154Z,5.13
2022-12-05T00:06:39.577Z,5.07
2022-12-05T00:09:08.609Z,5.20
2022-12-05T00:11:37.140Z,5.65
2022-12-05T00:14:06.164Z,5.72
2022-12-05T00:16:33.807Z,6.35
2022-12-05T00:19:01.499Z,5.57
2022-12-05T00:21:31.475Z,5.22
2022-12-05T00:23:59.276Z,5.47
2022-12-05T00:26:26.656Z,4.63
2022-12-05T00:28:54.400Z,5.55
2022-12-05T00:31:23.204Z,5.15
2022-12-05T00:33:50.356Z,4.28
2022-12-05T00:36:20.135Z,4.90
2022-12-05T00:38:47.092Z,4.18
2022-12-05T00:41:16.788Z,4.40
2022-12-05T00:43:43.787Z,3.78
2022-12-05T00:46:19.514Z,3.80
2022-12-05T00:48:46.612Z,3.92
2022-12-05T00:51:16.801Z,5.75
2022-12-05T00:53:44.102Z,3.92
2022-12-05T00:56:16.385Z,5.28
2022-12-05T00:58:43.233Z,4.15
2022-12-05T01:01:14.213Z,6.85
2022-12-05T01:03:41.306Z,4.32
2022-12-05T01:06:08.893Z,4.07
2022-12-05T01:08:36.312Z,4.28
2022-12-05T01:11:04.423Z,5.13
2022-12-05T01:13:31.223Z,3.78
2022-12-05T01:15:58.147Z,4.10
2022-12-05T01:18:25.357Z,3.88
2022-12-05T01:20:52.757Z,4.63
2022-12-05T01:23:19.883Z,4.70
2022-12-05T01:25:49.175Z,4.35
2022-12-05T01:28:16.588Z,3.65
2022-12-05T01:30:45.913Z,4.13
2022-12-05T01:33:12.843Z,4.18
2022-12-05T01:35:41.267Z,3.13
2022-12-05T01:38:07.797Z,3.30
2022-12-05T01:40:38.506Z,3.90
2022-12-05T01:43:13.619Z,2.97
2022-12-05T01:45:42.809Z,3.53
2022-12-05T01:48:18.408Z,2.97
2022-12-05T01:50:46.171Z,3.37
2022-12-05T01:53:13.361Z,3.08
2022-12-05T01:55:39.800Z,3.20
2022-12-05T01:58:09.033Z,3.28
2022-12-05T02:00:35.627Z,3.78
2022-12-05T02:03:07.226Z,3.20
2022-12-05T02:05:36.453Z,2.90
2022-12-05T02:08:06.224Z,3.30
2022-12-05T02:10:42.564Z,3.17
2022-12-05T02:13:21.749Z,3.20
2022-12-05T02:16:11.867Z,3.30
2022-12-05T02:18:45.336Z,3.10
2022-12-05T02:21:39.447Z,3.22
2022-12-05T02:24:43.669Z,2.88
2022-12-05T02:27:38.441Z,3.05
2022-12-05T02:30:32.658Z,2.90
2022-12-05T02:33:14.313Z,2.80
2022-12-05T02:35:58.112Z,2.97
2022-12-05T02:38:36.397Z,3.08
2022-12-05T02:41:24.688Z,3.10
2022-12-05T02:44:00.449Z,2.80
2022-12-05T02:46:29.923Z,3.30
2022-12-05T02:49:01.318Z,2.90
2022-12-05T02:51:34.791Z,3.10
2022-12-05T02:54:08.039Z,2.92
2022-12-05T02:56:36.221Z,3.03
2022-12-05T02:59:03.011Z,2.75
2022-12-05T03:01:32.447Z,3.38
2022-12-05T03:04:01.967Z,2.42
2022-12-05T03:06:36.261Z,2.88
2022-12-05T03:09:12.241Z,2.78
2022-12-05T03:11:47.595Z,2.85
2022-12-05T03:14:23.260Z,3.05
2022-12-05T03:16:53.874Z,2.70
2022-12-05T03:19:35.157Z,3.08
2022-12-05T03:22:27.806Z,3.35
2022-12-05T03:24:54.742Z,2.95
2022-12-05T03:27:27.435Z,3.63
2022-12-05T03:29:56.776Z,3.65
2022-12-05T03:32:32.160Z,3.35
2022-12-05T03:35:04.609Z,3.45
2022-12-05T03:37:45.110Z,2.90
2022-12-05T03:40:21.319Z,3.38
2022-12-05T03:42:57.789Z,2.58
2022-12-05T03:48:15.049Z,3.35
2022-12-05T03:50:46.444Z,3.47
2022-12-05T03:53:42.013Z,3.00
2022-12-05T03:56:13.372Z,3.40
2022-12-05T03:59:16.497Z,3.72
2022-12-05T04:01:45.187Z,3.25
2022-12-05T04:04:22.527Z,3.22
2022-12-05T04:06:53.316Z,3.90
2022-12-05T04:09:26.021Z,3.90
2022-12-05T04:11:57.888Z,4.22
2022-12-05T04:14:47.309Z,3.35
2022-12-05T04:17:27.607Z,3.58
2022-12-05T04:20:17.774Z,3.47
2022-12-05T04:22:44.919Z,3.75
2022-12-05T04:25:33.060Z,3.50
2022-12-05T04:28:08.075Z,3.53
2022-12-05T04:30:46.001Z,3.72
2022-12-05T04:33:20.004Z,4.40
2022-12-05T04:35:58.027Z,3.67
2022-12-05T04:38:30.242Z,3.75
2022-12-05T04:41:01.663Z,4.15
2022-12-05T04:43:31.306Z,3.33
2022-12-05T04:46:00.003Z,3.72
2022-12-05T04:48:28.031Z,4.38
2022-12-05T04:50:57.472Z,4.38
2022-12-05T04:53:29.279Z,3.42
2022-12-05T04:55:59.553Z,3.53
2022-12-05T04:58:28.223Z,3.47
2022-12-05T05:01:05.044Z,2.95
2022-12-05T05:03:42.214Z,3.15
2022-12-05T05:06:11.708Z,3.03
2022-12-05T05:08:47.323Z,3.90
2022-12-05T05:11:17.746Z,3.50
2022-12-05T05:13:44.298Z,4.05
2022-12-05T05:16:18.543Z,3.38
2022-12-05T05:18:46.781Z,3.53
2022-12-05T05:21:24.878Z,3.33
2022-12-05T05:23:51.802Z,3.33
2022-12-05T05:26:18.977Z,3.50
2022-12-05T05:28:46.506Z,3.33
2022-12-05T05:31:14.098Z,3.63
2022-12-05T05:33:40.821Z,3.30
2022-12-05T05:36:13.398Z,3.05
2022-12-05T05:38:42.518Z,3.58
2022-12-05T05:41:17.752Z,3.70
2022-12-05T05:43:44.998Z,4.03
2022-12-05T05:46:12.416Z,3.92
2022-12-05T05:48:39.561Z,3.50
2022-12-05T05:51:08.402Z,4.20
2022-12-05T05:53:35.392Z,3.63
2022-12-05T05:56:07.882Z,3.67
2022-12-05T05:58:34.951Z,3.10
2022-12-05T06:01:12.717Z,3.90
2022-12-05T06:03:40.158Z,3.72
2022-12-05T06:06:09.865Z,3.00
2022-12-05T06:08:38.274Z,3.70
2022-12-05T06:11:10.153Z,3.30
2022-12-05T06:13:37.285Z,2.78
2022-12-05T06:16:08.632Z,2.85
2022-12-05T06:18:35.491Z,3.25
2022-12-05T06:21:02.548Z,3.15
2022-12-05T06:23:28.950Z,3.03
2022-12-05T06:25:56.519Z,3.25
2022-12-05T06:28:24.839Z,3.45
2022-12-05T06:30:51.517Z,3.53
2022-12-05T06:33:18.836Z,3.17
2022-12-05T06:35:46.344Z,3.45
2022-12-05T06:38:12.998Z,3.38
2022-12-05T06:40:41.705Z,3.17
2022-12-05T06:43:08.415Z,3.47
2022-12-05T06:45:34.976Z,3.03
2022-12-05T06:48:01.440Z,3.40
2022-12-05T06:50:27.848Z,3.38
2022-12-05T06:52:54.314Z,3.20
2022-12-05T06:55:20.744Z,3.10
2022-12-05T06:57:47.161Z,3.13
2022-12-05T07:00:32.710Z,3.05
2022-12-05T07:02:59.133Z,2.63
2022-12-05T07:05:25.607Z,2.80
2022-12-05T07:07:52.059Z,2.92
2022-12-05T07:10:18.645Z,3.58
2022-12-05T07:12:45.084Z,2.97
2022-12-05T07:15:11.536Z,3.40
2022-12-05T07:17:39.060Z,3.75
2022-12-05T07:20:06.952Z,3.42
2022-12-05T07:22:35.988Z,2.78
2022-12-05T07:25:02.792Z,3.47
2022-12-05T07:27:29.323Z,3.30
2022-12-05T07:29:56.469Z,5.30
2022-12-05T07:32:23.496Z,6.68
2022-12-05T07:34:55.063Z,4.53
2022-12-05T07:37:22.191Z,6.93
2022-12-05T07:39:48.629Z,6.03
2022-12-05T07:42:15.057Z,4.72
2022-12-05T07:44:41.473Z,4.03
2022-12-05T07:47:07.905Z,3.72
2022-12-05T07:49:34.340Z,3.03
2022-12-05T07:52:00.831Z,2.65
2022-12-05T07:54:27.305Z,3.97
2022-12-05T07:56:53.704Z,3.60
2022-12-05T07:59:20.355Z,3.30
2022-12-05T08:01:47.029Z,2.50
2022-12-05T08:04:15.495Z,2.53
2022-12-05T08:06:42.861Z,2.00
2022-12-05T08:09:09.277Z,2.22
2022-12-05T08:11:36.131Z,2.80
2022-12-05T08:14:04.683Z,2.53
2022-12-05T08:16:32.278Z,2.45
2022-12-05T08:19:01.434Z,2.80
2022-12-05T08:21:28.580Z,3.33
2022-12-05T08:23:55.396Z,3.05
2022-12-05T08:26:27.693Z,2.95
2022-12-05T08:29:16.209Z,3.15
2022-12-05T08:31:47.152Z,3.05
2022-12-05T08:34:15.047Z,3.30
2022-12-05T08:36:41.845Z,3.40
2022-12-05T08:39:11.896Z,2.70
2022-12-05T08:41:38.324Z,3.00
2022-12-05T08:44:06.374Z,2.67
2022-12-05T08:46:35.848Z,3.33
2022-12-05T08:49:05.816Z,2.65
2022-12-05T08:51:32.291Z,2.13
2022-12-05T08:53:58.729Z,2.47
2022-12-05T08:56:27.467Z,2.25
2022-12-05T08:59:01.203Z,2.40
2022-12-05T09:01:32.217Z,2.50
2022-12-05T09:04:00.529Z,2.15
2022-12-05T09:06:28.003Z,2.65
2022-12-05T09:08:56.309Z,2.42
2022-12-05T09:11:26.855Z,2.13
2022-12-05T09:13:56.068Z,2.33
2022-12-05T09:16:25.752Z,2.40
2022-12-05T09:18:52.977Z,2.33
2022-12-05T09:21:21.948Z,2.90
2022-12-05T09:23:49.377Z,4.90
2022-12-05T09:26:18.619Z,3.38
2022-12-05T09:28:45.287Z,2.33
2022-12-05T09:31:18.922Z,2.85
2022-12-05T09:33:47.012Z,2.20
2022-12-05T09:36:16.870Z,2.88
2022-12-05T09:38:43.917Z,2.83
2022-12-05T09:41:21.680Z,3.70
2022-12-05T09:44:02.967Z,3.05
2022-12-05T09:46:45.314Z,3.05
2022-12-05T09:49:13.110Z,2.78
2022-12-05T09:51:44.807Z,3.45
2022-12-05T09:54:13.001Z,2.33
2022-12-05T09:56:43.321Z,2.67
2022-12-05T09:59:15.847Z,2.78
2022-12-05T10:02:11.533Z,2.88
2022-12-05T10:05:00.424Z,2.90
2022-12-05T10:08:12.076Z,3.70
2022-12-05T10:11:01.180Z,3.00
2022-12-05T10:13:55.816Z,3.25
2022-12-05T10:16:34.752Z,3.50
2022-12-05T10:19:10.002Z,3.00
2022-12-05T10:21:47.828Z,3.10
2022-12-05T10:24:21.111Z,3.03
2022-12-05T10:26:57.855Z,3.25
2022-12-05T10:29:29.977Z,3.67
2022-12-05T10:32:06.630Z,3.97
2022-12-05T10:34:41.667Z,3.78
2022-12-05T10:37:22.415Z,4.22
2022-12-05T10:39:50.614Z,4.28
2022-12-05T10:42:34.058Z,3.90
2022-12-05T10:45:06.310Z,4.10
2022-12-05T10:47:33.993Z,4.15
2022-12-05T10:50:05.396Z,4.28
2022-12-05T10:52:32.476Z,5.00
2022-12-05T10:55:03.683Z,4.10
2022-12-05T10:57:30.512Z,3.95
2022-12-05T10:59:57.741Z,4.30
2022-12-05T11:02:31.167Z,3.97
2022-12-05T11:04:59.242Z,3.72
2022-12-05T11:07:32.500Z,4.07
2022-12-05T11:10:01.282Z,3.78
2022-12-05T11:12:35.925Z,4.25
2022-12-05T11:15:19.477Z,3.97
2022-12-05T11:17:46.426Z,4.03
2022-12-05T11:20:15.857Z,4.72
2022-12-05T11:22:47.289Z,3.75
2022-12-05T11:25:44.204Z,3.60
2022-12-05T11:28:16.343Z,3.65
2022-12-05T11:31:12.026Z,4.07
2022-12-05T11:33:39.323Z,3.92
2022-12-05T11:36:19.349Z,3.90
2022-12-05T11:38:46.727Z,3.78
2022-12-05T11:41:37.723Z,4.13
2022-12-05T11:44:14.280Z,2.97
2022-12-05T11:46:52.597Z,2.95
2022-12-05T11:49:37.082Z,2.70
2022-12-05T11:52:25.115Z,2.65
2022-12-05T11:55:05.077Z,2.60
2022-12-05T11:57:53.647Z,2.38
2022-12-05T12:00:42.232Z,2.60
2022-12-05T12:04:04.309Z,2.72
2022-12-05T12:07:08.230Z,2.63
2022-12-05T12:09:47.915Z,2.50
2022-12-05T12:12:50.173Z,2.90
2022-12-05T12:15:39.282Z,2.53
2022-12-05T12:18:24.387Z,2.97
2022-12-05T12:21:05.845Z,2.60
2022-12-05T12:23:47.377Z,2.22
2022-12-05T12:26:33.391Z,2.55
2022-12-05T12:29:18.058Z,2.83
2022-12-05T12:32:15.724Z,2.75
2022-12-05T12:35:26.545Z,2.85
2022-12-05T12:38:17.107Z,2.50
2022-12-05T12:40:53.651Z,2.78
2022-12-05T12:43:52.760Z,2.78
2022-12-05T12:46:36.464Z,2.60
2022-12-05T12:49:09.055Z,2.70
2022-12-05T12:51:42.573Z,2.65
2022-12-05T12:54:54.654Z,2.40
2022-12-05T12:57:25.750Z,2.30
2022-12-05T13:00:29.843Z,2.65
2022-12-05T13:03:22.771Z,2.53
2022-12-05T13:05:54.030Z,2.88
2022-12-05T13:08:21.058Z,2.85
2022-12-05T13:10:49.059Z,2.95
2022-12-05T13:13:22.313Z,2.17
2022-12-05T13:15:56.095Z,2.88
2022-12-05T13:18:25.253Z,3.00
2022-12-05T13:20:54.887Z,2.20
2022-12-05T13:23:33.188Z,2.40
2022-12-05T13:26:01.555Z,2.28
2022-12-05T13:28:44.197Z,1.73
2022-12-05T13:31:11.645Z,1.73
2022-12-05T13:33:49.534Z,1.23
2022-12-05T13:36:40.547Z,1.33
2022-12-05T13:39:40.750Z,1.45
2022-12-05T13:42:21.556Z,1.70
2022-12-05T13:44:56.440Z,1.27
2022-12-05T13:47:33.661Z,1.17
2022-12-05T13:50:06.300Z,1.70
2022-12-05T13:52:49.820Z,1.27
2022-12-05T13:55:38.430Z,1.23
2022-12-05T13:58:41.433Z,1.08
2022-12-05T14:01:26.283Z,1.42
2022-12-05T14:03:58.212Z,1.55
2022-12-05T14:06:39.780Z,1.40
2022-12-05T14:09:18.328Z,1.40
2022-12-05T14:12:12.951Z,1.58
2022-12-05T14:14:57.985Z,1.70
2022-12-05T14:17:27.102Z,1.77
2022-12-05T14:20:05.327Z,1.45
2022-12-05T14:22:48.895Z,1.65
2022-12-05T14:25:20.998Z,1.60
2022-12-05T14:28:00.964Z,1.40
2022-12-05T14:31:04.728Z,1.95
2022-12-05T14:33:32.230Z,1.50
2022-12-05T14:36:07.316Z,1.83
2022-12-05T14:38:37.687Z,1.80
2022-12-05T14:41:32.532Z,1.65
2022-12-05T14:44:05.079Z,1.45
2022-12-05T14:46:34.817Z,1.33
2022-12-05T14:49:37.704Z,1.40
2022-12-05T14:52:12.115Z,1.73
2022-12-05T14:54:39.611Z,1.83
2022-12-05T14:57:16.254Z,1.35
2022-12-05T14:59:52.229Z,1.45
2022-12-05T15:02:26.995Z,1.58
2022-12-05T15:05:22.143Z,2.53
2022-12-05T15:07:51.289Z,1.90
2022-12-05T15:10:37.651Z,2.00
2022-12-05T15:13:17.564Z,1.67
2022-12-05T15:15:52.043Z,1.80
2022-12-05T15:18:21.341Z,1.77
2022-12-05T15:21:18.729Z,2.10
2022-12-05T15:29:19.544Z,2.35
2022-12-05T15:31:48.688Z,2.45
2022-12-05T15:34:23.807Z,1.65
2022-12-05T15:36:57.406Z,1.77
2022-12-05T15:39:26.143Z,1.95
2022-12-05T15:41:53.515Z,4.10
2022-12-05T15:44:26.857Z,2.92
2022-12-05T15:46:57.764Z,1.83
2022-12-05T15:49:27.377Z,2.03
2022-12-05T15:52:05.492Z,2.08
2022-12-05T15:54:35.553Z,2.78
2022-12-05T15:57:14.561Z,2.45
2022-12-05T16:00:03.869Z,2.30
2022-12-05T16:02:56.316Z,2.38
2022-12-05T16:05:46.807Z,2.95
2022-12-05T16:08:13.814Z,2.75
2022-12-05T16:10:40.329Z,2.72
2022-12-05T16:13:14.133Z,2.45
2022-12-05T16:15:52.839Z,2.50
2022-12-05T16:18:32.636Z,2.53
2022-12-05T16:20:59.306Z,2.00
2022-12-05T16:23:29.855Z,1.98
2022-12-05T16:26:24.372Z,1.85
2022-12-05T16:29:02.130Z,1.90
2022-12-05T16:31:30.241Z,2.50
2022-12-05T16:34:16.385Z,2.50
2022-12-05T16:36:47.773Z,2.33
2022-12-05T16:39:19.368Z,4.22
2022-12-05T16:41:47.067Z,11.20
2022-12-05T16:44:45.731Z,5.07
2022-12-05T16:47:30.968Z,2.88
2022-12-05T16:49:57.391Z,2.50
2022-12-05T16:52:30.695Z,1.90
2022-12-05T16:54:57.507Z,2.00
2022-12-05T16:57:24.146Z,1.95
2022-12-05T16:59:50.781Z,2.00
2022-12-05T17:02:18.849Z,2.10
2022-12-05T17:04:46.893Z,1.98
2022-12-05T17:07:13.354Z,1.80
2022-12-05T17:09:39.764Z,2.35
2022-12-05T17:12:23.176Z,2.17
2022-12-05T17:14:49.834Z,1.95
2022-12-05T17:17:18.035Z,2.08
2022-12-05T17:19:44.448Z,2.55
2022-12-05T17:22:13.436Z,2.63
2022-12-05T17:24:39.943Z,2.38
2022-12-05T17:27:10.822Z,2.47
2022-12-05T17:29:37.579Z,3.33
2022-12-05T17:32:04.579Z,2.50
2022-12-05T17:34:31.649Z,2.25
2022-12-05T17:36:58.131Z,2.45
2022-12-05T17:39:28.402Z,2.60
2022-12-05T17:41:55.553Z,2.17
2022-12-05T17:44:22.180Z,2.40
2022-12-05T17:46:49.371Z,2.58
2022-12-05T17:49:17.811Z,2.17
2022-12-05T17:52:13.296Z,2.70
2022-12-05T17:54:31.115Z,2.67
2022-12-05T17:56:57.516Z,2.60
2022-12-05T17:59:23.969Z,2.70
2022-12-05T18:01:50.440Z,2.40
2022-12-05T18:04:22.686Z,2.50
2022-12-05T18:06:49.735Z,2.42
2022-12-05T18:09:16.189Z,2.17
2022-12-05T18:11:42.606Z,2.38
2022-12-05T18:14:09.737Z,2.40
2022-12-05T18:16:36.264Z,2.28
2022-12-05T18:19:02.757Z,2.10
2022-12-05T18:21:29.228Z,3.40
2022-12-05T18:23:55.651Z,4.35
2022-12-05T18:26:22.111Z,6.03
2022-12-05T18:28:48.550Z,4.18
2022-12-05T18:31:16.597Z,4.65
2022-12-05T18:33:44.588Z,4.13
2022-12-05T18:36:15.794Z,3.92
2022-12-05T18:38:43.447Z,4.80
2022-12-05T18:41:10.212Z,2.97
2022-12-05T18:43:36.677Z,2.50
2022-12-05T18:46:04.309Z,2.95
2022-12-05T18:48:39.518Z,3.08
2022-12-05T18:51:11.027Z,2.70
2022-12-05T18:53:37.843Z,2.42
2022-12-05T18:56:22.182Z,2.63
2022-12-05T18:59:13.420Z,2.63
2022-12-05T19:01:41.822Z,2.75
2022-12-05T19:04:12.216Z,3.33
2022-12-05T19:06:39.979Z,6.38
2022-12-05T19:09:09.009Z,7.18
2022-12-05T19:11:35.775Z,4.90
2022-12-05T19:14:04.250Z,4.50
2022-12-05T19:16:32.763Z,6.35
2022-12-05T19:19:01.271Z,4.60
2022-12-05T19:21:30.851Z,3.42
2022-12-05T19:23:57.930Z,3.00
2022-12-05T19:26:25.201Z,2.92
2022-12-05T19:28:52.252Z,2.35
2022-12-05T19:31:21.871Z,2.80
2022-12-05T19:33:51.652Z,3.03
2022-12-05T19:36:27.679Z,2.63
2022-12-05T19:38:56.585Z,3.22
2022-12-05T19:41:26.033Z,5.43
2022-12-05T19:43:53.618Z,2.72
2022-12-05T19:46:25.464Z,2.53
2022-12-05T19:48:53.317Z,2.53
2022-12-05T19:51:20.379Z,2.70
2022-12-05T19:53:47.633Z,2.38
2022-12-05T19:56:19.980Z,2.97
2022-12-05T19:58:47.348Z,2.80
2022-12-05T20:01:32.127Z,2.95
2022-12-05T20:04:20.703Z,3.03
2022-12-05T20:06:49.357Z,3.00
2022-12-05T20:09:18.854Z,2.80
2022-12-05T20:11:53.918Z,2.60
2022-12-05T20:14:21.881Z,2.85
2022-12-05T20:16:48.774Z,2.50
2022-12-05T20:19:15.345Z,2.40
2022-12-05T20:21:41.791Z,2.55
2022-12-05T20:24:08.431Z,2.83
2022-12-05T20:26:37.805Z,3.15
2022-12-05T20:29:06.083Z,3.90
2022-12-05T20:31:35.974Z,3.00
2022-12-05T20:34:02.915Z,2.20
2022-12-05T20:36:31.209Z,2.38
2022-12-05T20:39:10.242Z,2.25
2022-12-05T20:41:36.819Z,2.42
2022-12-05T20:44:05.990Z,2.83
2022-12-05T20:46:32.763Z,2.20
2022-12-05T20:48:59.490Z,2.53
2022-12-05T20:51:28.294Z,2.35
2022-12-05T20:53:55.668Z,1.90
2022-12-05T20:56:28.316Z,2.75
2022-12-05T20:58:57.169Z,2.25
2022-12-05T21:01:25.410Z,2.30
2022-12-05T21:03:52.978Z,2.38
2022-12-05T21:06:29.018Z,1.98
2022-12-05T21:08:56.043Z,1.92
2022-12-05T21:11:23.811Z,2.10
2022-12-05T21:13:50.679Z,2.63
2022-12-05T21:16:20.357Z,2.38
2022-12-05T21:18:48.669Z,2.38
2022-12-05T21:21:20.717Z,2.70
2022-12-05T21:23:53.178Z,2.38
2022-12-05T21:26:19.913Z,2.40
2022-12-05T21:28:46.373Z,2.50
2022-12-05T21:31:20.630Z,2.22
2022-12-05T21:33:49.966Z,2.38
2022-12-05T21:36:17.628Z,2.47
2022-12-05T21:38:44.793Z,2.10
2022-12-05T21:41:11.925Z,2.38
2022-12-05T21:43:38.578Z,2.60
2022-12-05T21:46:06.003Z,2.60
2022-12-05T21:48:33.499Z,2.47
2022-12-05T21:51:00.073Z,2.67
2022-12-05T21:53:26.808Z,2.20
2022-12-05T21:56:22.940Z,2.00
2022-12-05T21:58:49.796Z,2.53
2022-12-05T22:01:18.899Z,2.03
2022-12-05T22:03:46.244Z,2.10
2022-12-05T22:06:15.222Z,2.83
2022-12-05T22:08:42.353Z,2.50
2022-12-05T22:11:14.693Z,2.60
2022-12-05T22:13:42.581Z,2.85
2022-12-05T22:16:09.858Z,2.45
2022-12-05T22:18:36.839Z,2.85
2022-12-05T22:21:10.183Z,2.40
2022-12-05T22:23:37.142Z,2.53
2022-12-05T22:26:09.225Z,3.50
2022-12-05T22:28:36.848Z,2.28
2022-12-05T22:31:05.794Z,2.65
2022-12-05T22:33:35.671Z,2.33
2022-12-05T22:36:03.802Z,2.97
2022-12-05T22:38:35.865Z,2.63
2022-12-05T22:41:08.729Z,2.60
2022-12-05T22:43:36.826Z,2.70
2022-12-05T22:46:08.051Z,2.85
2022-12-05T22:48:35.240Z,2.53
2022-12-05T22:51:02.425Z,2.70
2022-12-05T22:53:30.405Z,2.42
2022-12-05T22:56:11.394Z,2.80
2022-12-05T22:58:38.605Z,2.50
2022-12-05T23:01:28.404Z,2.58
2022-12-05T23:04:01.131Z,2.45
2022-12-05T23:06:28.925Z,2.20
2022-12-05T23:08:55.855Z,2.50
2022-12-05T23:11:23.459Z,2.20
2022-12-05T23:13:50.735Z,2.60
2022-12-05T23:16:23.401Z,2.50
2022-12-05T23:18:51.460Z,3.03
2022-12-05T23:21:21.068Z,2.58
2022-12-05T23:23:49.346Z,2.53
2022-12-05T23:26:17.277Z,2.40
2022-12-05T23:28:43.782Z,2.70
2022-12-05T23:31:11.225Z,2.72
2022-12-05T23:33:38.948Z,2.50
2022-12-05T23:36:06.574Z,2.83
2022-12-05T23:38:37.521Z,2.80
2022-12-05T23:41:11.353Z,2.22
2022-12-05T23:43:38.159Z,2.30
2022-12-05T23:46:06.075Z,3.35
2022-12-05T23:48:32.762Z,3.13
2022-12-05T23:51:00.930Z,2.47
2022-12-05T23:53:29.311Z,2.55
2022-12-05T23:56:00.198Z,2.95
2022-12-05T23:58:26.706Z,2.97
